Weather at Johor Polo Club Helipad

Public forecast

Using degrees Celsius for public forecast. Weather courtesy of forecast.io.

Closest aviation weather report (METAR) to Johor Polo Club Helipad

Closest report is Seletar Airport, 6.3 nm (11.7 km) SE.

2024/05/26 00:00 (retrieved 46 minutes ago)

WSSL 260000Z VRB01KT 9999 FEW016 BKN150 28/27 Q1010

Closest aviation forecast (TAF) to Johor Polo Club Helipad

Forecast is more than 12 hours old.

Closest forecast is Aden Adde International Airport, 3,509.4 nm (6,499.4 km) W.

2024/05/25 06:54 (retrieved 18 hours ago)

TAF HCMM 250500Z 2506/2612 21015KT 9999 BKN024 BECMG 2521/2600 SCT024 BKN070 BECMG 2603/2607 BKN020